createdAt,value
2018-11-29T00:01:30.571Z,15.20
2018-11-29T00:04:01.316Z,12.87
2018-11-29T00:06:49.750Z,10.83
2018-11-29T00:09:20.612Z,9.80
2018-11-29T00:11:51.093Z,8.17
2018-11-29T00:14:22.672Z,8.10
2018-11-29T00:16:53.396Z,9.27
2018-11-29T00:19:23.953Z,11.37
2018-11-29T00:21:55.797Z,19.33
2018-11-29T00:24:26.951Z,15.97
2018-11-29T00:26:57.373Z,9.33
2018-11-29T00:29:27.938Z,9.50
2018-11-29T00:31:58.972Z,9.03
2018-11-29T00:34:29.833Z,7.57
2018-11-29T00:37:01.073Z,7.77
2018-11-29T00:39:31.793Z,7.23
2018-11-29T00:42:03.192Z,7.00
2018-11-29T00:44:34.410Z,6.73
2018-11-29T00:47:05.212Z,6.17
2018-11-29T00:49:36.048Z,7.60
2018-11-29T00:52:06.992Z,10.17
2018-11-29T00:54:38.272Z,8.03
2018-11-29T00:57:09.092Z,6.90
2018-11-29T00:59:40.171Z,7.97
2018-11-29T01:02:10.993Z,6.60
2018-11-29T01:04:42.192Z,5.43
2018-11-29T01:07:12.973Z,8.47
2018-11-29T01:09:44.123Z,13.10
2018-11-29T01:12:15.410Z,10.07
2018-11-29T01:14:46.021Z,8.97
2018-11-29T01:17:17.051Z,9.17
2018-11-29T01:19:48.431Z,6.73
2018-11-29T01:22:19.513Z,7.80
2018-11-29T01:24:50.173Z,7.80
2018-11-29T01:27:20.896Z,6.10
2018-11-29T01:29:51.953Z,7.63
2018-11-29T01:32:22.693Z,6.53
2018-11-29T01:34:53.352Z,6.27
2018-11-29T01:37:24.316Z,7.07
2018-11-29T01:39:55.153Z,5.80
2018-11-29T01:42:25.650Z,6.93
2018-11-29T01:44:56.593Z,6.33
2018-11-29T01:47:27.577Z,9.07
2018-11-29T01:49:58.132Z,5.23
2018-11-29T01:52:29.693Z,7.17
2018-11-29T01:55:00.760Z,6.30
2018-11-29T01:57:31.748Z,6.33
2018-11-29T02:00:02.733Z,6.87
2018-11-29T02:02:34.036Z,6.03
2018-11-29T02:05:05.532Z,5.73
2018-11-29T02:07:36.917Z,6.53
2018-11-29T02:10:14.657Z,6.23
2018-11-29T02:12:46.333Z,5.03
2018-11-29T02:15:17.414Z,4.43
2018-11-29T02:17:48.774Z,6.23
2018-11-29T02:20:20.316Z,4.90
2018-11-29T02:22:51.274Z,4.83
2018-11-29T02:25:23.035Z,4.90
2018-11-29T02:27:54.194Z,5.20
2018-11-29T02:30:24.717Z,6.93
2018-11-29T02:32:56.274Z,6.77
2018-11-29T02:35:27.854Z,6.63
2018-11-29T02:37:58.514Z,5.70
2018-11-29T02:40:29.607Z,5.97
2018-11-29T02:43:00.454Z,6.20
2018-11-29T02:45:32.092Z,6.70
2018-11-29T02:48:03.455Z,6.50
2018-11-29T02:50:34.495Z,5.20
2018-11-29T02:53:06.255Z,4.53
2018-11-29T02:55:36.674Z,5.53
2018-11-29T02:58:07.637Z,5.07
2018-11-29T03:04:15.359Z,3.87
2018-11-29T03:06:45.935Z,4.03
2018-11-29T03:09:16.702Z,4.33
2018-11-29T03:11:47.578Z,4.87
2018-11-29T03:14:19.639Z,4.67
2018-11-29T03:16:50.419Z,4.83
2018-11-29T03:19:21.099Z,3.70
2018-11-29T03:21:51.319Z,4.80
2018-11-29T03:24:22.007Z,5.03
2018-11-29T03:26:52.454Z,3.30
2018-11-29T03:29:22.614Z,3.80
2018-11-29T03:31:53.540Z,3.90
2018-11-29T03:34:25.262Z,3.60
2018-11-29T03:36:56.259Z,4.87
2018-11-29T03:39:27.300Z,4.37
2018-11-29T03:41:58.720Z,2.77
2018-11-29T03:44:30.322Z,4.57
2018-11-29T03:47:01.138Z,3.67
2018-11-29T03:49:32.099Z,3.83
2018-11-29T03:52:03.057Z,4.70
2018-11-29T03:54:33.853Z,4.83
2018-11-29T03:57:05.079Z,5.13
2018-11-29T03:59:36.298Z,5.40
2018-11-29T04:02:08.238Z,4.93
2018-11-29T04:04:39.279Z,4.93
2018-11-29T04:07:10.019Z,4.87
2018-11-29T04:09:41.694Z,3.80
2018-11-29T04:12:12.197Z,4.67
2018-11-29T04:14:43.438Z,3.43
2018-11-29T04:17:14.818Z,5.07
2018-11-29T04:19:45.417Z,4.93
2018-11-29T04:22:16.698Z,5.00
2018-11-29T04:24:47.822Z,4.40
2018-11-29T04:27:18.541Z,3.87
2018-11-29T04:29:49.496Z,3.67
2018-11-29T04:32:21.061Z,3.67
2018-11-29T04:34:52.299Z,7.07
2018-11-29T04:37:23.438Z,5.73
2018-11-29T04:39:54.366Z,5.87
2018-11-29T04:42:25.299Z,6.87
2018-11-29T04:44:56.519Z,6.70
2018-11-29T04:47:27.161Z,6.33
2018-11-29T04:49:57.898Z,4.00
2018-11-29T04:52:28.978Z,6.37
2018-11-29T04:55:00.479Z,4.50
2018-11-29T04:57:32.117Z,5.23
2018-11-29T05:00:03.277Z,5.40
2018-11-29T05:02:33.960Z,5.90
2018-11-29T05:05:05.217Z,7.00
2018-11-29T05:07:35.959Z,9.20
2018-11-29T05:10:07.937Z,8.27
2018-11-29T05:12:38.958Z,6.90
2018-11-29T05:15:11.038Z,6.17
2018-11-29T05:17:42.366Z,6.03
2018-11-29T05:20:13.246Z,4.93
2018-11-29T05:22:44.123Z,5.57
2018-11-29T05:25:15.179Z,5.30
2018-11-29T05:27:46.158Z,6.40
2018-11-29T05:30:17.198Z,8.87
2018-11-29T05:32:48.558Z,6.30
2018-11-29T05:35:18.992Z,8.40
2018-11-29T05:37:49.458Z,8.57
2018-11-29T05:40:20.538Z,7.23
2018-11-29T05:42:51.758Z,7.07
2018-11-29T05:45:22.797Z,5.93
2018-11-29T05:47:53.858Z,9.73
2018-11-29T05:50:25.198Z,7.43
2018-11-29T05:52:56.258Z,7.03
2018-11-29T05:55:27.599Z,6.83
2018-11-29T05:57:58.012Z,6.77
2018-11-29T06:00:29.038Z,6.53
2018-11-29T06:03:00.068Z,6.70
2018-11-29T06:05:31.617Z,6.93
2018-11-29T06:08:02.678Z,6.90
2018-11-29T06:10:33.558Z,6.40
2018-11-29T06:13:04.358Z,5.60
2018-11-29T06:15:35.277Z,5.40
2018-11-29T06:18:06.658Z,5.77
2018-11-29T06:20:37.558Z,5.87
2018-11-29T06:23:08.223Z,5.23
2018-11-29T06:25:38.920Z,7.93
2018-11-29T06:28:09.857Z,5.97
2018-11-29T06:30:40.897Z,6.07
2018-11-29T06:33:11.717Z,6.07
2018-11-29T06:35:42.338Z,6.10
2018-11-29T06:38:13.358Z,6.13
2018-11-29T06:40:44.397Z,6.17
2018-11-29T06:43:15.139Z,5.47
2018-11-29T06:45:45.759Z,6.20
2018-11-29T06:48:16.358Z,4.93
2018-11-29T06:50:47.278Z,6.60
2018-11-29T06:53:23.442Z,7.57
2018-11-29T06:55:54.731Z,7.33
2018-11-29T06:58:25.553Z,7.10
2018-11-29T07:00:56.658Z,9.50
2018-11-29T07:03:28.939Z,9.00
2018-11-29T07:05:58.318Z,7.20
2018-11-29T07:08:29.378Z,9.73
2018-11-29T07:11:00.397Z,9.57
2018-11-29T07:13:31.459Z,8.33
2018-11-29T07:16:02.230Z,10.30
2018-11-29T07:18:33.203Z,9.63
2018-11-29T07:21:15.058Z,10.20
2018-11-29T07:23:46.158Z,12.20
2018-11-29T07:26:17.418Z,12.07
2018-11-29T07:28:48.361Z,13.27
2018-11-29T07:31:19.278Z,13.87
2018-11-29T07:33:50.038Z,16.37
2018-11-29T07:36:21.378Z,15.00
2018-11-29T07:38:52.116Z,18.27
2018-11-29T07:41:23.138Z,16.73
2018-11-29T07:43:53.738Z,18.63
2018-11-29T07:46:24.580Z,17.00
2018-11-29T07:48:55.955Z,17.17
2018-11-29T07:51:26.598Z,16.23
2018-11-29T07:53:57.135Z,15.20
2018-11-29T07:56:28.118Z,14.30
2018-11-29T07:58:58.797Z,13.53
2018-11-29T08:01:29.837Z,15.17
2018-11-29T08:04:00.379Z,15.20
2018-11-29T08:06:31.300Z,14.47
2018-11-29T08:09:02.036Z,13.77
2018-11-29T08:11:32.935Z,14.50
2018-11-29T08:14:04.038Z,14.03
2018-11-29T08:16:34.570Z,13.43
2018-11-29T08:19:05.498Z,12.23
2018-11-29T08:21:36.561Z,13.40
2018-11-29T08:24:07.638Z,14.27
2018-11-29T08:26:37.818Z,11.33
2018-11-29T08:29:08.478Z,13.73
2018-11-29T08:31:39.115Z,12.03
2018-11-29T08:34:10.023Z,11.53
2018-11-29T08:36:40.818Z,13.43
2018-11-29T08:39:11.298Z,14.03
2018-11-29T08:41:42.117Z,13.07
2018-11-29T08:44:12.578Z,11.53
2018-11-29T08:46:44.458Z,12.17
2018-11-29T08:49:14.815Z,13.47
2018-11-29T08:51:45.597Z,11.73
2018-11-29T08:54:16.757Z,11.77
2018-11-29T08:56:47.464Z,11.93
2018-11-29T08:59:18.337Z,12.57
2018-11-29T09:01:49.222Z,11.17
2018-11-29T09:04:20.077Z,11.03
2018-11-29T09:06:50.978Z,11.90
2018-11-29T09:09:21.898Z,11.23
2018-11-29T09:11:53.198Z,11.00
2018-11-29T09:14:23.737Z,10.87
2018-11-29T09:16:54.900Z,11.80
2018-11-29T09:19:25.138Z,11.33
2018-11-29T09:21:55.578Z,12.57
2018-11-29T09:24:25.779Z,11.73
2018-11-29T09:26:56.697Z,11.13
2018-11-29T09:29:27.560Z,11.73
2018-11-29T09:31:58.678Z,12.50
2018-11-29T09:34:29.677Z,12.23
2018-11-29T09:37:00.801Z,10.77
2018-11-29T09:39:31.037Z,11.93
2018-11-29T09:42:03.017Z,11.47
2018-11-29T09:44:32.218Z,11.53
2018-11-29T09:47:02.394Z,11.67
2018-11-29T09:49:33.280Z,10.13
2018-11-29T09:52:03.755Z,10.50
2018-11-29T09:54:34.479Z,9.53
2018-11-29T09:57:05.238Z,10.40
2018-11-29T09:59:35.911Z,10.17
2018-11-29T10:02:06.759Z,11.73
2018-11-29T10:04:37.998Z,12.30
2018-11-29T10:07:08.851Z,11.60
2018-11-29T10:09:40.190Z,9.87
2018-11-29T10:12:11.038Z,8.90
2018-11-29T10:14:42.498Z,9.97
2018-11-29T10:17:13.426Z,10.07
2018-11-29T10:19:44.879Z,9.27
2018-11-29T10:22:15.678Z,9.07
2018-11-29T10:24:46.519Z,8.40
2018-11-29T10:27:17.357Z,7.90
2018-11-29T10:29:48.400Z,7.47
2018-11-29T10:32:18.876Z,8.30
2018-11-29T10:34:49.217Z,8.23
2018-11-29T10:37:20.006Z,9.00
2018-11-29T10:39:50.447Z,8.07
2018-11-29T10:42:20.739Z,7.63
2018-11-29T10:44:51.784Z,7.63
2018-11-29T10:47:22.288Z,7.93
2018-11-29T10:49:53.145Z,8.23
2018-11-29T10:52:23.899Z,8.20
2018-11-29T10:54:54.007Z,7.67
2018-11-29T10:57:24.958Z,8.17
2018-11-29T10:59:55.619Z,7.73
2018-11-29T11:02:30.538Z,8.13
2018-11-29T11:05:01.659Z,7.10
2018-11-29T11:07:33.354Z,8.70
2018-11-29T11:10:04.558Z,8.73
2018-11-29T11:12:36.014Z,7.80
2018-11-29T11:15:06.599Z,8.13
2018-11-29T11:17:36.745Z,7.97
2018-11-29T11:20:07.043Z,7.50
2018-11-29T11:22:38.018Z,8.17
2018-11-29T11:25:10.338Z,7.47
2018-11-29T11:27:40.899Z,8.53
2018-11-29T11:30:18.903Z,6.93
2018-11-29T11:32:50.678Z,8.40
2018-11-29T11:35:21.035Z,8.13
2018-11-29T11:37:51.918Z,8.37
2018-11-29T11:40:22.881Z,8.03
2018-11-29T11:42:54.019Z,9.97
2018-11-29T11:45:24.479Z,9.63
2018-11-29T11:47:54.879Z,9.17
2018-11-29T11:50:26.518Z,9.27
2018-11-29T11:52:57.718Z,9.23
2018-11-29T11:55:30.320Z,8.83
2018-11-29T11:57:58.722Z,9.00
2018-11-29T12:00:30.338Z,9.13
2018-11-29T12:03:17.227Z,7.97
2018-11-29T12:05:47.582Z,8.70
2018-11-29T12:08:18.479Z,8.63
2018-11-29T12:10:49.457Z,9.20
2018-11-29T12:13:19.980Z,8.83
2018-11-29T12:15:50.419Z,9.67
2018-11-29T12:18:21.508Z,8.80
2018-11-29T12:20:52.319Z,8.37
2018-11-29T12:23:22.939Z,11.57
2018-11-29T12:25:53.334Z,8.77
2018-11-29T12:28:24.040Z,10.97
2018-11-29T12:30:54.758Z,8.90
2018-11-29T12:33:24.879Z,9.23
2018-11-29T12:35:55.537Z,9.77
2018-11-29T12:38:26.499Z,9.47
2018-11-29T12:40:57.378Z,8.20
2018-11-29T12:43:28.579Z,9.03
2018-11-29T12:45:59.679Z,9.37
2018-11-29T12:48:30.498Z,8.70
2018-11-29T12:51:01.698Z,8.63
2018-11-29T12:53:32.518Z,9.40
2018-11-29T12:56:03.178Z,9.07
2018-11-29T12:58:33.779Z,8.93
2018-11-29T13:01:04.425Z,9.20
2018-11-29T13:03:35.100Z,9.73
2018-11-29T13:06:07.058Z,9.60
2018-11-29T13:08:37.759Z,8.87
2018-11-29T13:11:10.728Z,7.97
2018-11-29T13:13:39.238Z,10.00
2018-11-29T13:16:09.738Z,9.40
2018-11-29T13:18:40.558Z,8.87
2018-11-29T13:21:10.946Z,9.53
2018-11-29T13:23:41.083Z,9.53
2018-11-29T13:26:11.440Z,8.97
2018-11-29T13:28:42.026Z,8.33
2018-11-29T13:31:12.099Z,8.80
2018-11-29T13:33:42.852Z,8.17
2018-11-29T13:36:13.738Z,9.73
2018-11-29T13:38:44.379Z,10.30
2018-11-29T13:41:15.180Z,9.77
2018-11-29T13:43:45.776Z,8.43
2018-11-29T13:46:17.929Z,8.80
2018-11-29T13:48:48.940Z,9.50
2018-11-29T13:51:19.558Z,7.70
2018-11-29T13:53:49.909Z,9.70
2018-11-29T13:56:20.760Z,8.10
2018-11-29T13:58:51.459Z,9.13
2018-11-29T14:01:22.238Z,8.90
2018-11-29T14:03:53.223Z,8.43
2018-11-29T14:06:24.139Z,8.90
2018-11-29T14:09:00.904Z,9.47
2018-11-29T14:11:31.909Z,8.83
2018-11-29T14:14:02.822Z,8.63
2018-11-29T14:16:33.560Z,8.37
2018-11-29T14:19:04.361Z,8.63
2018-11-29T14:21:35.938Z,9.20
2018-11-29T14:24:06.337Z,8.53
2018-11-29T14:26:36.771Z,9.07
2018-11-29T14:29:07.617Z,9.37
2018-11-29T14:31:38.585Z,10.30
2018-11-29T14:34:09.518Z,7.93
2018-11-29T14:36:40.360Z,9.43
2018-11-29T14:39:11.640Z,7.83
2018-11-29T14:41:41.971Z,8.33
2018-11-29T14:44:12.659Z,7.97
2018-11-29T14:46:43.164Z,7.50
2018-11-29T14:49:13.659Z,7.23
2018-11-29T14:51:48.163Z,7.23
2018-11-29T14:54:14.669Z,7.67
2018-11-29T14:56:45.038Z,7.63
2018-11-29T14:59:15.902Z,7.87
2018-11-29T15:01:46.618Z,7.60
2018-11-29T15:04:17.213Z,7.63
2018-11-29T15:06:47.739Z,7.50
2018-11-29T15:09:18.318Z,8.07
2018-11-29T15:11:49.079Z,6.50
2018-11-29T15:14:20.260Z,7.27
2018-11-29T15:16:50.905Z,6.97
2018-11-29T15:19:21.618Z,7.30
2018-11-29T15:21:52.678Z,7.00
2018-11-29T15:24:23.358Z,7.90
2018-11-29T15:26:54.523Z,7.00
2018-11-29T15:29:26.321Z,6.60
2018-11-29T15:31:57.238Z,8.43
2018-11-29T15:34:27.876Z,7.60
2018-11-29T15:36:59.059Z,7.63
2018-11-29T15:39:30.019Z,6.93
2018-11-29T15:42:00.924Z,7.13
2018-11-29T15:44:31.978Z,6.87
2018-11-29T15:47:02.613Z,5.93
2018-11-29T15:49:33.999Z,5.77
2018-11-29T15:52:05.725Z,7.83
2018-11-29T15:54:36.758Z,7.17
2018-11-29T15:57:08.412Z,7.80
2018-11-29T15:59:39.459Z,6.93
2018-11-29T16:02:10.698Z,6.60
2018-11-29T16:04:41.898Z,7.63
2018-11-29T16:07:12.486Z,6.90
2018-11-29T16:09:43.619Z,7.30
2018-11-29T16:12:14.767Z,7.30
2018-11-29T16:14:45.872Z,7.40
2018-11-29T16:17:17.678Z,7.93
2018-11-29T16:19:48.438Z,7.03
2018-11-29T16:22:19.301Z,7.70
2018-11-29T16:24:50.299Z,6.73
2018-11-29T16:27:21.197Z,6.97
2018-11-29T16:29:51.881Z,6.47
2018-11-29T16:32:22.838Z,7.03
2018-11-29T16:34:54.038Z,6.67
2018-11-29T16:37:25.357Z,6.07
2018-11-29T16:39:56.879Z,6.73
2018-11-29T16:42:27.957Z,7.73
2018-11-29T16:44:59.458Z,8.00
2018-11-29T16:47:30.418Z,6.93
2018-11-29T16:50:01.501Z,7.00
2018-11-29T16:52:33.517Z,6.27
2018-11-29T16:55:04.558Z,6.93
2018-11-29T16:57:35.920Z,6.70
2018-11-29T17:00:12.019Z,7.17
2018-11-29T17:02:42.698Z,7.07
2018-11-29T17:05:15.119Z,7.03
2018-11-29T17:07:46.077Z,6.73
2018-11-29T17:10:19.986Z,7.07
2018-11-29T17:12:52.500Z,6.20
2018-11-29T17:15:24.041Z,7.73
2018-11-29T17:17:55.437Z,6.90
2018-11-29T17:20:26.818Z,6.27
2018-11-29T17:22:58.018Z,6.70
2018-11-29T17:25:28.778Z,7.03
2018-11-29T17:27:59.957Z,6.07
2018-11-29T17:30:31.337Z,6.70
2018-11-29T17:33:02.659Z,5.83
2018-11-29T17:35:33.550Z,6.03
2018-11-29T17:38:04.717Z,7.20
2018-11-29T17:40:36.258Z,6.10
2018-11-29T17:43:08.337Z,6.53
2018-11-29T17:45:39.777Z,6.03
2018-11-29T17:48:11.916Z,6.67
2018-11-29T17:50:44.241Z,6.17
2018-11-29T17:53:15.218Z,6.27
2018-11-29T17:55:46.649Z,6.23
2018-11-29T17:58:17.897Z,6.03
2018-11-29T18:00:50.878Z,7.03
2018-11-29T18:03:23.237Z,7.50
2018-11-29T18:05:54.079Z,6.83
2018-11-29T18:08:24.702Z,6.17
2018-11-29T18:10:57.771Z,6.43
2018-11-29T18:13:38.855Z,6.23
2018-11-29T18:16:14.486Z,7.70
2018-11-29T18:18:46.159Z,6.60
2018-11-29T18:24:00.815Z,7.53
2018-11-29T18:26:31.789Z,6.30
2018-11-29T18:29:02.421Z,7.53
2018-11-29T18:31:33.512Z,6.87
2018-11-29T18:34:04.757Z,6.03
2018-11-29T18:36:36.467Z,7.50
2018-11-29T18:39:09.376Z,6.73
2018-11-29T18:41:40.349Z,6.30
2018-11-29T18:44:10.998Z,6.00
2018-11-29T18:46:41.942Z,6.83
2018-11-29T18:49:12.755Z,5.80
2018-11-29T18:51:43.975Z,6.47
2018-11-29T18:54:14.798Z,5.53
2018-11-29T18:56:45.177Z,6.30
2018-11-29T18:59:15.637Z,6.07
2018-11-29T19:01:46.178Z,6.00
2018-11-29T19:04:17.517Z,7.00
2018-11-29T19:06:48.338Z,7.20
2018-11-29T19:09:19.597Z,7.03
2018-11-29T19:11:50.278Z,7.70
2018-11-29T19:14:21.309Z,6.83
2018-11-29T19:16:52.078Z,6.67
2018-11-29T19:19:22.929Z,6.47
2018-11-29T19:21:53.678Z,9.13
2018-11-29T19:24:24.494Z,7.40
2018-11-29T19:26:55.118Z,7.37
2018-11-29T19:29:26.617Z,7.00
2018-11-29T19:31:57.755Z,7.23
2018-11-29T19:34:28.547Z,7.23
2018-11-29T19:36:59.460Z,7.90
2018-11-29T19:39:30.153Z,5.80
2018-11-29T19:42:01.279Z,7.93
2018-11-29T19:44:32.358Z,6.17
2018-11-29T19:47:03.595Z,6.50
2018-11-29T19:49:34.377Z,6.20
2018-11-29T19:52:06.297Z,7.20
2018-11-29T19:54:38.417Z,6.37
2018-11-29T19:57:09.377Z,7.50
2018-11-29T19:59:40.300Z,6.73
2018-11-29T20:02:11.017Z,6.63
2018-11-29T20:04:43.458Z,7.90
2018-11-29T20:07:14.328Z,6.87
2018-11-29T20:09:45.558Z,7.40
2018-11-29T20:12:16.380Z,6.37
2018-11-29T20:14:47.676Z,6.63
2018-11-29T20:17:18.737Z,7.03
2018-11-29T20:19:49.767Z,6.70
2018-11-29T20:22:20.941Z,7.17
2018-11-29T20:24:52.081Z,7.03
2018-11-29T20:27:22.937Z,8.00
2018-11-29T20:29:54.198Z,7.67
2018-11-29T20:32:24.938Z,6.37
2018-11-29T20:34:55.600Z,8.30
2018-11-29T20:37:26.557Z,8.03
2018-11-29T20:39:58.506Z,7.30
2018-11-29T20:42:29.609Z,6.90
2018-11-29T20:45:00.779Z,7.33
2018-11-29T20:47:32.018Z,7.20
2018-11-29T20:50:03.137Z,7.17
2018-11-29T20:52:33.878Z,6.67
2018-11-29T20:55:05.301Z,6.63
2018-11-29T20:57:36.057Z,7.93
2018-11-29T21:00:10.817Z,6.70
2018-11-29T21:02:42.280Z,8.00
2018-11-29T21:05:14.585Z,6.37
2018-11-29T21:07:47.157Z,7.73
2018-11-29T21:10:20.240Z,6.67
2018-11-29T21:12:51.138Z,7.03
2018-11-29T21:15:21.875Z,9.07
2018-11-29T21:17:52.417Z,8.47
2018-11-29T21:20:23.617Z,9.33
2018-11-29T21:22:54.659Z,8.07
2018-11-29T21:25:26.140Z,7.03
2018-11-29T21:27:56.718Z,7.30
2018-11-29T21:30:28.258Z,7.30
2018-11-29T21:33:00.237Z,8.07
2018-11-29T21:35:30.835Z,7.97
2018-11-29T21:38:03.619Z,6.97
2018-11-29T21:40:34.600Z,7.80
2018-11-29T21:43:05.337Z,7.63
2018-11-29T21:45:36.876Z,8.27
2018-11-29T21:48:08.017Z,7.80
2018-11-29T21:50:38.896Z,6.40
2018-11-29T21:53:10.339Z,8.40
2018-11-29T21:55:42.036Z,7.30
2018-11-29T21:58:12.917Z,7.00
2018-11-29T22:00:44.078Z,6.43
2018-11-29T22:03:15.060Z,6.63
2018-11-29T22:05:45.558Z,7.97
2018-11-29T22:08:16.206Z,7.97
2018-11-29T22:10:46.629Z,7.10
2018-11-29T22:13:17.671Z,7.33
2018-11-29T22:15:48.418Z,7.43
2018-11-29T22:18:23.767Z,7.90
2018-11-29T22:21:00.637Z,7.47
2018-11-29T22:23:31.957Z,7.43
2018-11-29T22:26:04.004Z,7.63
2018-11-29T22:28:34.716Z,6.87
2018-11-29T22:31:06.056Z,6.50
2018-11-29T22:33:37.216Z,7.43
2018-11-29T22:36:07.837Z,7.93
2018-11-29T22:38:38.958Z,6.90
2018-11-29T22:41:09.998Z,7.97
2018-11-29T22:43:40.984Z,7.03
2018-11-29T22:46:11.839Z,6.07
2018-11-29T22:48:42.616Z,7.60
2018-11-29T22:51:13.335Z,6.83
2018-11-29T22:53:44.074Z,6.77
2018-11-29T22:56:14.737Z,6.87
2018-11-29T22:58:45.796Z,6.77
2018-11-29T23:01:21.896Z,6.73
2018-11-29T23:03:52.877Z,6.17
2018-11-29T23:06:23.736Z,6.33
2018-11-29T23:08:55.619Z,6.77
2018-11-29T23:11:26.758Z,7.00
2018-11-29T23:13:57.898Z,7.57
2018-11-29T23:16:28.857Z,6.93
2018-11-29T23:18:59.404Z,5.87
2018-11-29T23:21:30.477Z,7.47
2018-11-29T23:24:01.520Z,6.80
2018-11-29T23:26:32.282Z,7.17
2018-11-29T23:29:03.056Z,7.20
2018-11-29T23:31:34.338Z,6.73
2018-11-29T23:34:05.737Z,5.87
2018-11-29T23:36:36.637Z,8.03
2018-11-29T23:39:08.740Z,6.87
2018-11-29T23:41:39.399Z,7.03
2018-11-29T23:44:09.977Z,5.97
2018-11-29T23:46:41.856Z,7.37
2018-11-29T23:49:12.878Z,5.70
2018-11-29T23:51:44.235Z,6.87
2018-11-29T23:54:15.418Z,5.93
2018-11-29T23:56:46.417Z,7.70
2018-11-29T23:59:17.277Z,7.00
